createdAt,value
2022-10-17T00:01:15.561Z,81.99
2022-10-17T00:03:43.860Z,82.19
2022-10-17T00:06:15.605Z,82.30
2022-10-17T00:08:45.085Z,82.42
2022-10-17T00:11:18.830Z,82.48
2022-10-17T00:13:47.755Z,82.91
2022-10-17T00:16:17.202Z,82.82
2022-10-17T00:18:45.453Z,82.72
2022-10-17T00:21:18.261Z,82.81
2022-10-17T00:23:46.833Z,82.92
2022-10-17T00:26:17.945Z,83.11
2022-10-17T00:28:48.755Z,83.29
2022-10-17T00:31:20.262Z,83.50
2022-10-17T00:33:49.705Z,83.73
2022-10-17T00:36:20.280Z,84.08
2022-10-17T00:38:52.189Z,84.53
2022-10-17T00:41:24.777Z,84.91
2022-10-17T00:44:00.170Z,85.04
2022-10-17T00:46:31.236Z,85.14
2022-10-17T00:49:04.476Z,86.04
2022-10-17T00:51:40.682Z,87.04
2022-10-17T00:54:10.927Z,87.42
2022-10-17T00:56:41.269Z,87.78
2022-10-17T00:59:10.873Z,88.44
2022-10-17T01:01:40.944Z,88.90
2022-10-17T01:04:09.873Z,89.35
2022-10-17T01:06:40.953Z,90.12
2022-10-17T01:09:09.905Z,90.83
2022-10-17T01:11:50.906Z,91.17
2022-10-17T01:14:30.991Z,91.46
2022-10-17T01:17:10.245Z,91.76
2022-10-17T01:20:06.921Z,92.21
2022-10-17T01:22:42.671Z,92.53
2022-10-17T01:25:31.193Z,92.68
2022-10-17T01:28:20.436Z,92.86
2022-10-17T01:31:07.842Z,92.97
2022-10-17T01:33:54.707Z,92.90
2022-10-17T01:36:38.122Z,92.49
2022-10-17T01:39:17.400Z,92.77
2022-10-17T01:41:51.440Z,92.62
2022-10-17T01:44:23.883Z,92.62
2022-10-17T01:46:59.548Z,92.49
2022-10-17T01:49:30.783Z,92.37
2022-10-17T01:52:05.160Z,92.32
2022-10-17T01:54:40.718Z,93.10
2022-10-17T01:57:14.357Z,93.21
2022-10-17T01:59:46.067Z,93.09
2022-10-17T02:02:17.889Z,92.95
2022-10-17T02:04:48.496Z,92.66
2022-10-17T02:07:17.107Z,92.77
2022-10-17T02:09:45.585Z,92.46
2022-10-17T02:12:36.407Z,92.13
2022-10-17T02:15:33.100Z,91.61
2022-10-17T02:18:17.663Z,91.47
2022-10-17T02:20:52.984Z,91.37
2022-10-17T02:23:31.378Z,91.33
2022-10-17T02:26:08.399Z,91.30
2022-10-17T02:28:46.142Z,91.27
2022-10-17T02:31:18.094Z,91.35
2022-10-17T02:33:53.899Z,90.67
2022-10-17T02:36:26.423Z,91.18
2022-10-17T02:38:56.845Z,91.53
2022-10-17T02:41:26.547Z,91.65
2022-10-17T02:43:57.701Z,91.37
2022-10-17T02:46:29.820Z,91.63
2022-10-17T02:49:04.612Z,92.31
2022-10-17T02:51:43.902Z,92.75
2022-10-17T02:54:18.975Z,93.15
2022-10-17T02:56:54.795Z,93.54
2022-10-17T02:59:26.267Z,93.69
2022-10-17T03:01:54.828Z,93.78
2022-10-17T03:04:24.524Z,93.76
2022-10-17T03:06:52.869Z,94.11
2022-10-17T03:09:21.100Z,94.62
2022-10-17T03:11:49.437Z,94.81
2022-10-17T03:14:17.838Z,95.42
2022-10-17T03:17:01.290Z,95.35
2022-10-17T03:19:31.159Z,95.42
2022-10-17T03:21:59.597Z,95.47
2022-10-17T03:24:27.842Z,95.71
2022-10-17T03:26:56.366Z,95.80
2022-10-17T03:29:24.964Z,96.18
2022-10-17T03:31:53.226Z,96.40
2022-10-17T03:34:21.712Z,95.89
2022-10-17T03:36:51.418Z,96.16
2022-10-17T03:39:20.713Z,96.34
2022-10-17T03:41:49.735Z,96.68
2022-10-17T03:44:18.053Z,96.74
2022-10-17T03:46:46.485Z,96.46
2022-10-17T03:49:14.886Z,96.38
2022-10-17T03:51:43.342Z,96.07
2022-10-17T03:54:16.478Z,95.60
2022-10-17T03:56:44.975Z,95.44
2022-10-17T03:59:17.469Z,95.02
2022-10-17T04:01:52.675Z,95.02
2022-10-17T04:04:21.026Z,95.14
2022-10-17T04:06:49.370Z,95.09
2022-10-17T04:09:19.293Z,94.81
2022-10-17T04:11:57.074Z,94.94
2022-10-17T04:14:26.222Z,94.81
2022-10-17T04:16:54.567Z,94.61
2022-10-17T04:19:23.412Z,95.05
2022-10-17T04:21:52.217Z,95.51
2022-10-17T04:24:22.200Z,95.92
2022-10-17T04:27:09.201Z,95.94
2022-10-17T04:29:42.401Z,96.48
2022-10-17T04:32:29.011Z,96.66
2022-10-17T04:35:04.951Z,96.27
2022-10-17T04:37:33.766Z,96.77
2022-10-17T04:40:11.232Z,96.56
2022-10-17T04:42:39.552Z,96.77
2022-10-17T04:45:09.621Z,96.90
2022-10-17T04:47:38.607Z,96.54
2022-10-17T04:50:07.841Z,97.01
2022-10-17T04:52:38.093Z,97.08
2022-10-17T04:55:09.051Z,97.33
2022-10-17T04:57:37.936Z,97.40
2022-10-17T05:00:16.847Z,97.07
2022-10-17T05:02:55.218Z,97.03
2022-10-17T05:05:23.449Z,97.19
2022-10-17T05:07:54.743Z,97.58
2022-10-17T05:10:28.074Z,97.72
2022-10-17T05:12:56.426Z,97.59
2022-10-17T05:15:28.928Z,97.50
2022-10-17T05:17:58.453Z,97.75
2022-10-17T05:20:28.639Z,97.86
2022-10-17T05:22:57.035Z,98.24
2022-10-17T05:25:26.787Z,98.37
2022-10-17T05:27:55.135Z,98.30
2022-10-17T05:30:27.115Z,98.51
2022-10-17T05:32:59.891Z,98.60
2022-10-17T05:35:28.358Z,98.14
2022-10-17T05:37:57.520Z,97.85
2022-10-17T05:40:28.443Z,97.48
2022-10-17T05:42:56.760Z,97.50
2022-10-17T05:45:26.366Z,96.88
2022-10-17T05:47:54.725Z,96.75
2022-10-17T05:50:24.224Z,96.86
2022-10-17T05:53:06.618Z,96.89
2022-10-17T05:55:42.269Z,96.50
2022-10-17T05:58:17.671Z,95.95
2022-10-17T06:01:00.121Z,95.58
2022-10-17T06:03:29.290Z,95.32
2022-10-17T06:05:59.576Z,95.29
2022-10-17T06:08:28.014Z,95.25
2022-10-17T06:10:57.679Z,95.13
2022-10-17T06:13:26.085Z,94.98
2022-10-17T06:15:55.765Z,94.95
2022-10-17T06:18:26.293Z,94.71
2022-10-17T06:20:55.208Z,94.64
2022-10-17T06:23:23.698Z,94.37
2022-10-17T06:26:06.581Z,94.30
2022-10-17T06:28:36.213Z,94.23
2022-10-17T06:31:07.401Z,94.25
2022-10-17T06:33:36.559Z,94.08
2022-10-17T06:36:08.204Z,94.19
2022-10-17T06:38:37.217Z,94.36
2022-10-17T06:41:14.655Z,94.42
2022-10-17T06:43:46.275Z,94.46
2022-10-17T06:46:46.855Z,94.62
2022-10-17T06:49:17.994Z,94.77
2022-10-17T06:51:51.913Z,94.88
2022-10-17T06:54:24.678Z,94.90
2022-10-17T06:57:06.337Z,95.29
2022-10-17T07:00:14.523Z,95.45
2022-10-17T07:02:47.965Z,95.30
2022-10-17T07:05:16.507Z,95.10
2022-10-17T07:07:46.398Z,95.46
2022-10-17T07:10:17.047Z,95.07
2022-10-17T07:12:47.047Z,95.25
2022-10-17T07:15:15.549Z,95.74
2022-10-17T07:17:43.941Z,95.86
2022-10-17T07:20:12.966Z,95.69
2022-10-17T07:22:41.418Z,96.10
2022-10-17T07:25:10.953Z,95.08
2022-10-17T07:28:02.154Z,94.98
2022-10-17T07:30:30.716Z,94.35
2022-10-17T07:33:04.664Z,92.82
2022-10-17T07:35:33.165Z,91.61
2022-10-17T07:38:01.416Z,91.24
2022-10-17T07:40:29.907Z,91.75
2022-10-17T07:43:00.013Z,91.57
2022-10-17T07:45:29.139Z,90.62
2022-10-17T07:47:59.117Z,89.98
2022-10-17T07:50:27.549Z,89.89
2022-10-17T07:52:55.947Z,90.15
2022-10-17T07:55:24.237Z,90.16
2022-10-17T07:57:52.617Z,90.80
2022-10-17T08:00:22.258Z,90.43
2022-10-17T08:02:50.564Z,91.00
2022-10-17T08:05:19.011Z,90.30
2022-10-17T08:07:47.480Z,89.33
2022-10-17T08:10:17.615Z,89.01
2022-10-17T08:12:46.128Z,88.61
2022-10-17T08:15:14.610Z,87.75
2022-10-17T08:17:44.428Z,88.97
2022-10-17T08:20:13.241Z,86.27
2022-10-17T08:22:41.771Z,86.98
2022-10-17T08:25:10.960Z,87.57
2022-10-17T08:27:39.325Z,88.25
2022-10-17T08:30:09.520Z,88.18
2022-10-17T08:32:37.974Z,88.65
2022-10-17T08:35:08.713Z,88.60
2022-10-17T08:37:37.247Z,88.26
2022-10-17T08:40:07.174Z,87.57
2022-10-17T08:42:57.137Z,86.48
2022-10-17T08:45:33.395Z,86.85
2022-10-17T08:48:03.942Z,84.76
2022-10-17T08:50:40.547Z,84.93
2022-10-17T08:53:17.442Z,82.41
2022-10-17T08:55:48.683Z,84.24
2022-10-17T08:58:21.943Z,84.28
2022-10-17T09:01:03.456Z,83.19
2022-10-17T09:03:53.144Z,83.36
2022-10-17T09:06:29.940Z,83.46
2022-10-17T09:09:16.913Z,82.93
2022-10-17T09:11:58.035Z,79.74
2022-10-17T09:14:54.085Z,80.25
2022-10-17T09:17:36.444Z,80.62
2022-10-17T09:20:11.827Z,80.97
2022-10-17T09:22:49.213Z,80.27
2022-10-17T09:25:21.012Z,78.34
2022-10-17T09:27:53.672Z,78.43
2022-10-17T09:30:45.049Z,77.38
2022-10-17T09:33:34.419Z,78.56
2022-10-17T09:36:11.268Z,77.63
2022-10-17T09:38:44.146Z,78.30
2022-10-17T09:41:43.592Z,79.51
2022-10-17T09:44:20.396Z,80.71
2022-10-17T09:47:14.086Z,79.93
2022-10-17T09:49:44.814Z,80.49
2022-10-17T09:52:16.870Z,79.57
2022-10-17T09:54:50.104Z,79.23
2022-10-17T09:57:20.817Z,78.91
2022-10-17T09:59:58.715Z,77.86
2022-10-17T10:02:29.753Z,78.77
2022-10-17T10:05:05.102Z,78.89
2022-10-17T10:07:37.388Z,76.65
2022-10-17T10:10:09.970Z,77.92
2022-10-17T10:12:40.659Z,75.34
2022-10-17T10:15:34.408Z,74.66
2022-10-17T10:18:03.445Z,73.29
2022-10-17T10:20:36.303Z,74.48
2022-10-17T10:23:21.494Z,74.26
2022-10-17T10:25:55.222Z,75.18
2022-10-17T10:28:28.402Z,74.13
2022-10-17T10:30:59.425Z,75.79
2022-10-17T10:33:31.186Z,75.10
2022-10-17T10:36:03.341Z,74.43
2022-10-17T10:38:33.813Z,73.80
2022-10-17T10:41:07.821Z,73.80
2022-10-17T10:43:40.459Z,72.30
2022-10-17T10:46:23.497Z,71.90
2022-10-17T10:48:55.349Z,70.90
2022-10-17T10:51:29.750Z,70.44
2022-10-17T10:54:06.491Z,71.19
2022-10-17T10:56:40.193Z,71.06
2022-10-17T10:59:20.116Z,70.72
2022-10-17T11:01:55.874Z,72.93
2022-10-17T11:04:33.911Z,70.41
2022-10-17T11:07:06.951Z,71.14
2022-10-17T11:09:54.080Z,69.80
2022-10-17T11:12:30.176Z,68.28
2022-10-17T11:15:05.176Z,69.66
2022-10-17T11:17:39.995Z,69.28
2022-10-17T11:20:19.375Z,67.30
2022-10-17T11:22:50.686Z,66.83
2022-10-17T11:25:33.158Z,67.84
2022-10-17T11:28:05.083Z,65.53
2022-10-17T11:33:28.028Z,64.15
2022-10-17T11:36:04.546Z,66.14
2022-10-17T11:38:44.919Z,62.57
2022-10-17T11:41:18.395Z,60.61
2022-10-17T11:43:54.863Z,59.93
2022-10-17T11:46:26.121Z,58.05
2022-10-17T11:49:08.960Z,58.05
2022-10-17T11:52:02.899Z,58.03
2022-10-17T11:54:37.727Z,55.11
2022-10-17T11:57:25.879Z,54.96
2022-10-17T12:00:09.003Z,54.51
2022-10-17T12:02:43.836Z,50.28
2022-10-17T12:05:23.602Z,48.54
2022-10-17T12:07:57.468Z,48.90
2022-10-17T12:10:40.298Z,48.73
2022-10-17T12:13:57.866Z,45.44
2022-10-17T12:16:46.120Z,42.35
2022-10-17T12:19:38.113Z,42.00
2022-10-17T12:22:20.711Z,41.08
2022-10-17T12:25:01.322Z,40.47
2022-10-17T12:27:45.946Z,41.88
2022-10-17T12:30:24.543Z,42.65
2022-10-17T12:33:07.435Z,42.41
2022-10-17T12:35:39.107Z,40.85
2022-10-17T12:38:27.835Z,40.66
2022-10-17T12:41:01.600Z,39.20
2022-10-17T12:43:57.071Z,39.17
2022-10-17T12:46:51.043Z,39.67
2022-10-17T12:49:43.259Z,38.32
2022-10-17T12:52:54.903Z,39.09
2022-10-17T12:55:26.837Z,38.12
2022-10-17T12:58:00.244Z,39.00
2022-10-17T13:00:37.119Z,40.62
2022-10-17T13:03:13.269Z,40.11
2022-10-17T13:05:49.457Z,38.88
2022-10-17T13:08:22.189Z,38.90
2022-10-17T13:10:53.507Z,39.47
2022-10-17T13:13:37.633Z,40.02
2022-10-17T13:16:06.645Z,41.36
2022-10-17T13:18:35.577Z,42.23
2022-10-17T13:21:08.487Z,43.36
2022-10-17T13:23:39.077Z,42.45
2022-10-17T13:26:16.120Z,42.36
2022-10-17T13:28:44.918Z,42.54
2022-10-17T13:31:31.824Z,42.27
2022-10-17T13:34:02.940Z,41.54
2022-10-17T13:36:35.474Z,41.98
2022-10-17T13:39:12.196Z,41.26
2022-10-17T13:41:41.967Z,41.06
2022-10-17T13:44:15.503Z,41.04
2022-10-17T13:46:45.076Z,41.04
2022-10-17T13:49:23.176Z,40.08
2022-10-17T13:51:57.058Z,39.45
2022-10-17T13:54:40.179Z,39.90
2022-10-17T13:57:21.340Z,40.59
2022-10-17T13:59:52.673Z,40.42
2022-10-17T14:02:24.257Z,39.62
2022-10-17T14:05:16.700Z,40.70
2022-10-17T14:10:44.528Z,38.53
2022-10-17T14:13:24.304Z,38.49
2022-10-17T14:15:54.867Z,38.66
2022-10-17T14:18:33.269Z,38.39
2022-10-17T14:24:27.797Z,38.70
2022-10-17T14:26:58.984Z,38.57
2022-10-17T14:29:30.256Z,37.72
2022-10-17T14:32:06.057Z,37.99
2022-10-17T14:34:37.936Z,37.49
2022-10-17T14:37:11.841Z,38.24
2022-10-17T14:39:41.924Z,37.79
2022-10-17T14:42:20.580Z,37.24
2022-10-17T14:44:51.590Z,37.22
2022-10-17T14:47:42.820Z,36.84
2022-10-17T14:50:24.663Z,37.60
2022-10-17T14:53:05.930Z,37.98
2022-10-17T14:55:37.246Z,38.02
2022-10-17T14:58:18.085Z,37.88
2022-10-17T15:00:46.739Z,38.38
2022-10-17T15:03:15.292Z,38.17
2022-10-17T15:05:43.782Z,38.51
2022-10-17T15:08:14.910Z,38.13
2022-10-17T15:10:46.130Z,37.98
2022-10-17T15:13:27.699Z,37.60
2022-10-17T15:15:57.639Z,37.54
2022-10-17T15:18:26.060Z,37.63
2022-10-17T15:21:04.574Z,38.49
2022-10-17T15:23:34.993Z,39.18
2022-10-17T15:26:04.969Z,38.70
2022-10-17T15:28:33.383Z,38.30
2022-10-17T15:31:01.788Z,38.25
2022-10-17T15:33:30.232Z,38.23
2022-10-17T15:38:26.926Z,37.97
2022-10-17T15:40:55.355Z,38.41
2022-10-17T15:43:25.286Z,39.02
2022-10-17T15:45:53.860Z,38.65
2022-10-17T15:48:31.210Z,38.86
2022-10-17T15:50:59.738Z,39.09
2022-10-17T15:53:28.145Z,39.56
2022-10-17T15:55:56.688Z,39.56
2022-10-17T15:58:28.262Z,40.54
2022-10-17T16:00:56.626Z,41.27
2022-10-17T16:03:25.061Z,41.28
2022-10-17T16:05:53.443Z,41.69
2022-10-17T16:08:21.723Z,41.82
2022-10-17T16:10:50.658Z,42.11
2022-10-17T16:13:21.184Z,42.30
2022-10-17T16:15:51.492Z,42.78
2022-10-17T16:18:21.131Z,42.42
2022-10-17T16:20:49.627Z,43.17
2022-10-17T16:23:17.959Z,42.69
2022-10-17T16:25:46.351Z,43.21
2022-10-17T16:28:14.599Z,43.84
2022-10-17T16:30:46.170Z,43.63
2022-10-17T16:33:15.859Z,43.97
2022-10-17T16:35:45.699Z,43.99
2022-10-17T16:38:14.110Z,44.13
2022-10-17T16:40:42.590Z,44.17
2022-10-17T16:43:13.300Z,44.01
2022-10-17T16:45:42.042Z,44.72
2022-10-17T16:48:12.250Z,44.66
2022-10-17T16:50:42.302Z,44.73
2022-10-17T16:53:10.652Z,45.10
2022-10-17T16:55:39.150Z,45.31
2022-10-17T16:58:07.510Z,45.73
2022-10-17T17:00:36.065Z,45.83
2022-10-17T17:03:04.388Z,46.51
2022-10-17T17:05:32.804Z,46.60
2022-10-17T17:08:03.780Z,46.67
2022-10-17T17:10:32.229Z,47.06
2022-10-17T17:13:01.732Z,47.40
2022-10-17T17:15:30.359Z,47.46
2022-10-17T17:18:02.688Z,47.74
2022-10-17T17:20:34.809Z,48.05
2022-10-17T17:23:04.464Z,48.05
2022-10-17T17:25:35.233Z,48.44
2022-10-17T17:28:03.744Z,48.73
2022-10-17T17:30:33.059Z,48.96
2022-10-17T17:33:01.685Z,49.16
2022-10-17T17:35:31.389Z,49.36
2022-10-17T17:41:13.749Z,49.83
2022-10-17T17:43:42.236Z,50.03
2022-10-17T17:46:11.254Z,50.39
2022-10-17T17:48:41.049Z,50.71
2022-10-17T17:51:12.443Z,50.82
2022-10-17T17:53:41.711Z,51.17
2022-10-17T17:56:14.080Z,51.68
2022-10-17T17:58:45.547Z,51.79
2022-10-17T18:01:20.379Z,51.96
2022-10-17T18:03:52.753Z,52.08
2022-10-17T18:06:22.884Z,52.13
2022-10-17T18:08:53.462Z,52.58
2022-10-17T18:11:23.737Z,53.35
2022-10-17T18:13:55.753Z,53.37
2022-10-17T18:16:24.216Z,53.12
2022-10-17T18:18:52.628Z,52.99
2022-10-17T18:21:21.018Z,53.69
2022-10-17T18:23:50.313Z,53.81
2022-10-17T18:26:19.069Z,54.32
2022-10-17T18:28:50.681Z,54.48
2022-10-17T18:31:24.433Z,55.13
2022-10-17T18:33:53.774Z,55.26
2022-10-17T18:36:22.914Z,55.57
2022-10-17T18:38:51.389Z,56.21
2022-10-17T18:41:23.494Z,56.82
2022-10-17T18:43:55.029Z,57.05
2022-10-17T18:46:25.601Z,57.59
2022-10-17T18:48:54.688Z,58.05
2022-10-17T18:51:25.785Z,58.64
2022-10-17T18:53:56.496Z,58.61
2022-10-17T18:56:25.127Z,59.12
2022-10-17T18:58:55.391Z,59.48
2022-10-17T19:01:27.287Z,59.88
2022-10-17T19:03:58.482Z,60.08
2022-10-17T19:06:31.709Z,60.25
2022-10-17T19:09:00.409Z,60.78
2022-10-17T19:11:30.704Z,61.46
2022-10-17T19:14:12.708Z,61.25
2022-10-17T19:16:45.300Z,62.02
2022-10-17T19:19:16.907Z,62.32
2022-10-17T19:21:45.904Z,62.03
2022-10-17T19:24:16.757Z,62.36
2022-10-17T19:26:47.711Z,62.36
2022-10-17T19:29:18.944Z,62.41
2022-10-17T19:31:48.421Z,62.33
2022-10-17T19:34:18.030Z,62.61
2022-10-17T19:36:46.565Z,63.12
2022-10-17T19:39:17.979Z,63.40
2022-10-17T19:41:48.618Z,63.64
2022-10-17T19:44:18.926Z,63.52
2022-10-17T19:46:49.206Z,64.01
2022-10-17T19:49:18.112Z,64.10
2022-10-17T19:51:46.416Z,64.53
2022-10-17T19:54:18.301Z,64.86
2022-10-17T19:56:46.888Z,65.11
2022-10-17T19:59:18.296Z,65.75
2022-10-17T20:01:46.853Z,65.62
2022-10-17T20:04:15.573Z,66.12
2022-10-17T20:06:44.188Z,66.18
2022-10-17T20:09:16.694Z,66.41
2022-10-17T20:11:46.597Z,66.77
2022-10-17T20:14:14.976Z,66.62
2022-10-17T20:16:49.991Z,66.84
2022-10-17T20:19:19.877Z,66.70
2022-10-17T20:21:48.155Z,67.29
2022-10-17T20:24:17.918Z,67.44
2022-10-17T20:26:46.977Z,67.83
2022-10-17T20:29:23.579Z,67.92
2022-10-17T20:31:53.175Z,68.31
2022-10-17T20:34:21.774Z,68.37
2022-10-17T20:36:50.733Z,68.51
2022-10-17T20:39:21.413Z,68.47
2022-10-17T20:41:50.112Z,68.78
2022-10-17T20:44:18.394Z,68.59
2022-10-17T20:47:00.713Z,68.83
2022-10-17T20:49:32.069Z,68.90
2022-10-17T20:52:01.820Z,69.21
2022-10-17T20:54:30.243Z,69.10
2022-10-17T20:57:01.131Z,69.41
2022-10-17T20:59:34.287Z,69.58
2022-10-17T21:02:02.904Z,69.57
2022-10-17T21:04:46.001Z,69.74
2022-10-17T21:07:15.653Z,70.17
2022-10-17T21:09:45.308Z,70.97
2022-10-17T21:12:21.583Z,71.40
2022-10-17T21:14:59.452Z,72.17
2022-10-17T21:17:28.151Z,72.23
2022-10-17T21:19:57.700Z,72.94
2022-10-17T21:22:26.086Z,73.22
2022-10-17T21:24:54.408Z,73.58
2022-10-17T21:27:22.738Z,73.89
2022-10-17T21:29:52.058Z,74.12
2022-10-17T21:32:33.340Z,74.46
2022-10-17T21:35:10.560Z,74.59
2022-10-17T21:37:38.888Z,75.00
2022-10-17T21:40:09.139Z,75.54
2022-10-17T21:42:37.362Z,76.04
2022-10-17T21:45:15.146Z,76.50
2022-10-17T21:47:54.956Z,77.33
2022-10-17T21:50:33.583Z,77.95
2022-10-17T21:53:01.812Z,78.82
2022-10-17T21:55:30.064Z,79.53
2022-10-17T21:57:58.385Z,79.88
2022-10-17T22:00:26.613Z,80.19
2022-10-17T22:02:54.921Z,80.45
2022-10-17T22:05:23.343Z,80.68
2022-10-17T22:07:52.898Z,80.68
2022-10-17T22:10:21.215Z,80.59
2022-10-17T22:12:49.423Z,80.17
2022-10-17T22:15:17.826Z,80.27
2022-10-17T22:17:46.066Z,81.10
2022-10-17T22:20:14.337Z,81.51
2022-10-17T22:22:42.537Z,81.94
2022-10-17T22:25:12.538Z,82.38
2022-10-17T22:27:41.004Z,82.45
2022-10-17T22:30:11.218Z,82.85
2022-10-17T22:32:39.446Z,82.75
2022-10-17T22:35:09.041Z,82.73
2022-10-17T22:37:37.567Z,82.83
2022-10-17T22:40:07.783Z,82.73
2022-10-17T22:42:37.562Z,83.02
2022-10-17T22:45:06.847Z,83.26
2022-10-17T22:47:35.111Z,83.25
2022-10-17T22:50:03.516Z,83.33
2022-10-17T22:52:31.992Z,82.86
2022-10-17T22:55:00.455Z,82.97
2022-10-17T22:57:28.665Z,82.99
2022-10-17T22:59:58.342Z,82.86
2022-10-17T23:02:26.661Z,82.77
2022-10-17T23:04:54.850Z,82.88
2022-10-17T23:07:23.243Z,82.65
2022-10-17T23:09:51.964Z,82.82
2022-10-17T23:12:20.654Z,82.65
2022-10-17T23:14:48.992Z,82.18
2022-10-17T23:17:19.078Z,81.97
2022-10-17T23:19:47.372Z,81.48
2022-10-17T23:22:15.627Z,81.34
2022-10-17T23:24:43.936Z,81.29
2022-10-17T23:27:12.287Z,81.40
2022-10-17T23:29:40.471Z,81.49
2022-10-17T23:32:08.839Z,81.96
2022-10-17T23:34:38.408Z,81.71
2022-10-17T23:37:06.778Z,82.16
2022-10-17T23:39:35.111Z,82.30
2022-10-17T23:42:03.324Z,81.99
2022-10-17T23:44:31.724Z,81.27
2022-10-17T23:47:00.086Z,80.62
2022-10-17T23:49:28.763Z,80.74
2022-10-17T23:51:58.481Z,80.55
2022-10-17T23:54:26.732Z,80.51
2022-10-17T23:56:55.026Z,80.48
2022-10-17T23:59:23.300Z,80.41
